Time;durP1;ratioP1;P1;durP2;ratioP2;P2;SDS_P1;SDS_P2;PMS_P1;PMS_P2;Temp;Humidity;BMP_temperature;BMP_pressure;BME280_temperature;BME280_humidity;BME280_pressure;Samples;Min_cycle;Max_cycle;Signal;HPM_P1;HPM_P2
2022/01/31 00:02:11;;;;;;;31.80;16.30;;;;;;;1.40;73.65;97421.07;109553;1276;22440;-64
2022/01/31 00:04:42;;;;;;;33.60;16.40;;;;;;;1.33;73.46;97416.23;109448;1276;23111;-64
2022/01/31 00:07:11;;;;;;;37.20;15.20;;;;;;;1.29;73.61;97408.60;109627;1274;22530;-63
2022/01/31 00:09:42;;;;;;;33.00;13.80;;;;;;;1.26;73.83;97421.52;109629;1274;22445;-63
2022/01/31 00:12:13;;;;;;;26.10;12.40;;;;;;;1.22;73.56;97411.45;109416;1276;22596;-63
2022/01/31 00:14:44;;;;;;;27.10;12.90;;;;;;;1.21;73.06;97414.16;109624;1274;22364;-64
2022/01/31 00:17:13;;;;;;;27.20;12.00;;;;;;;1.24;72.61;97428.56;109624;1274;22453;-64
2022/01/31 00:19:42;;;;;;;28.80;13.80;;;;;;;1.25;72.54;97408.35;109629;1274;22430;-65
2022/01/31 00:22:13;;;;;;;32.50;14.00;;;;;;;1.26;72.95;97405.12;109620;1274;22395;-64
2022/01/31 00:24:42;;;;;;;34.50;13.60;;;;;;;1.24;72.26;97422.20;109573;1276;22523;-64
2022/01/31 00:27:10;;;;;;;25.10;13.60;;;;;;;1.23;71.91;97421.44;109559;1275;22567;-64
2022/01/31 00:29:40;;;;;;;28.50;11.70;;;;;;;1.25;71.94;97421.04;109524;1274;137843;-65
2022/01/31 00:32:10;;;;;;;27.80;12.30;;;;;;;1.25;71.60;97428.52;109576;1275;23326;-64
2022/01/31 00:34:42;;;;;;;30.90;11.90;;;;;;;1.24;71.35;97420.17;109595;1274;22543;-64
2022/01/31 00:37:14;;;;;;;30.30;13.80;;;;;;;1.22;71.12;97420.91;109642;1274;22452;-64
2022/01/31 00:39:43;;;;;;;29.80;12.20;;;;;;;1.21;70.98;97440.00;109623;1274;22616;-65
2022/01/31 00:42:13;;;;;;;23.90;12.00;;;;;;;1.22;71.01;97419.94;109635;1274;22429;-64
2022/01/31 00:44:55;;;;;;;24.10;10.60;;;;;;;1.24;71.20;97428.73;109542;1274;23304;-65
2022/01/31 00:47:26;;;;;;;24.90;11.60;;;;;;;1.26;70.37;97430.17;109567;1274;22468;-64
2022/01/31 00:50:19;;;;;;;32.20;12.20;;;;;;;1.25;69.73;97443.60;109416;1276;23165;-64
2022/01/31 00:52:47;;;;;;;27.20;12.40;;;;;;;1.26;69.54;97434.15;109545;1275;22548;-64
2022/01/31 00:55:16;;;;;;;29.60;11.80;;;;;;;1.25;69.50;97433.77;109536;1274;22474;-64
2022/01/31 00:57:46;;;;;;;23.40;11.20;;;;;;;1.23;69.36;97423.05;109598;1274;22387;-64
2022/01/31 01:00:16;;;;;;;26.70;12.10;;;;;;;1.19;69.18;97425.43;109589;1274;22487;-64
2022/01/31 01:02:44;;;;;;;33.90;12.70;;;;;;;1.20;69.04;97418.77;109612;1274;22576;-65
2022/01/31 01:05:15;;;;;;;26.30;11.40;;;;;;;1.18;68.98;97428.66;109485;1276;23319;-63
2022/01/31 01:07:49;;;;;;;22.00;10.90;;;;;;;1.18;68.67;97420.96;109607;1274;23104;-64
2022/01/31 01:10:20;;;;;;;27.30;11.20;;;;;;;1.19;68.88;97420.02;109641;1274;22447;-64
2022/01/31 01:12:54;;;;;;;23.70;10.40;;;;;;;1.19;68.76;97419.91;109600;1274;22771;-64
2022/01/31 01:15:26;;;;;;;27.80;12.20;;;;;;;1.17;68.06;97419.77;109479;1274;22430;-64
2022/01/31 01:17:54;;;;;;;26.20;12.40;;;;;;;1.16;67.91;97431.45;109617;1274;22639;-64
2022/01/31 01:20:24;;;;;;;26.90;11.20;;;;;;;1.14;67.42;97422.57;109447;1275;22690;-64
2022/01/31 01:22:54;;;;;;;24.80;11.10;;;;;;;1.13;67.40;97419.21;109596;1274;22476;-64
2022/01/31 01:25:23;;;;;;;29.90;11.50;;;;;;;1.11;67.67;97408.89;109481;1276;23266;-63
2022/01/31 01:27:54;;;;;;;28.00;11.70;;;;;;;1.09;67.86;97436.00;109500;1275;22568;-63
2022/01/31 01:30:24;;;;;;;27.10;12.30;;;;;;;1.07;67.63;97411.52;109458;1276;22398;-63
2022/01/31 01:33:10;;;;;;;28.70;11.30;;;;;;;1.05;67.59;97397.58;109556;1274;22455;-64
2022/01/31 01:35:42;;;;;;;23.00;11.80;;;;;;;1.03;66.98;97415.08;109483;1276;23301;-64
2022/01/31 01:38:15;;;;;;;28.30;11.50;;;;;;;1.02;67.37;97402.70;109620;1274;23301;-64
2022/01/31 01:40:47;;;;;;;25.80;9.90;;;;;;;0.99;67.42;97395.50;109632;1274;22494;-64
2022/01/31 01:43:17;;;;;;;30.70;11.50;;;;;;;0.96;66.71;97398.92;109598;1274;22584;-64
2022/01/31 01:45:49;;;;;;;26.70;11.30;;;;;;;0.95;67.17;97389.25;109399;1274;22444;-64
2022/01/31 01:48:19;;;;;;;26.30;10.40;;;;;;;0.93;67.43;97381.32;109330;1274;22741;-64
2022/01/31 01:50:50;;;;;;;22.90;10.20;;;;;;;0.98;67.80;97403.17;109542;1275;23833;-63
2022/01/31 01:53:20;;;;;;;25.70;11.30;;;;;;;1.00;66.97;97375.25;109499;1274;137816;-64
2022/01/31 01:55:54;;;;;;;21.40;10.60;;;;;;;0.98;67.05;97373.70;109600;1274;22468;-63
2022/01/31 01:58:37;;;;;;;22.00;9.50;;;;;;;0.96;66.65;97364.41;109596;1274;23168;-65
2022/01/31 02:01:06;;;;;;;26.80;10.70;;;;;;;0.94;67.04;97342.39;109521;1274;22567;-64
2022/01/31 02:03:57;;;;;;;27.60;11.30;;;;;;;0.89;66.93;97350.14;109479;1273;22594;-64
2022/01/31 02:06:34;;;;;;;23.10;10.60;;;;;;;0.85;66.78;97361.34;109543;1274;22455;-63
2022/01/31 02:09:03;;;;;;;22.20;9.70;;;;;;;0.81;66.32;97345.71;109583;1274;22483;-64
2022/01/31 02:11:32;;;;;;;27.10;10.40;;;;;;;0.79;66.68;97335.78;109532;1274;23231;-64
2022/01/31 02:14:01;;;;;;;24.10;9.20;;;;;;;0.76;66.59;97355.36;109602;1273;22548;-64
2022/01/31 02:16:32;;;;;;;21.10;9.10;;;;;;;0.73;66.68;97326.80;109612;1274;22506;-64
2022/01/31 02:19:15;;;;;;;27.90;10.50;;;;;;;0.70;66.38;97327.88;109640;1273;22499;-63
2022/01/31 02:21:52;;;;;;;26.70;11.30;;;;;;;0.68;66.51;97328.08;109475;1274;137900;-64
2022/01/31 02:24:40;;;;;;;23.20;10.40;;;;;;;0.65;66.73;97328.88;109607;1274;22469;-63
2022/01/31 02:27:32;;;;;;;22.60;9.60;;;;;;;0.62;66.46;97320.37;109571;1274;22630;-63
2022/01/31 02:30:05;;;;;;;21.40;8.60;;;;;;;0.59;66.28;97324.16;109514;1274;22396;-64
2022/01/31 02:32:35;;;;;;;20.70;8.50;;;;;;;0.58;66.17;97316.36;109158;1274;22459;-64
2022/01/31 02:35:05;;;;;;;23.00;9.70;;;;;;;0.57;66.41;97315.96;109618;1274;23275;-64
2022/01/31 02:37:33;;;;;;;27.60;9.50;;;;;;;0.55;66.33;97318.33;109580;1274;22641;-64
2022/01/31 02:40:14;;;;;;;19.50;9.10;;;;;;;0.54;65.84;97326.12;109593;1274;22415;-64
2022/01/31 02:42:42;;;;;;;20.10;9.10;;;;;;;0.55;66.33;97303.00;109644;1274;22503;-64
2022/01/31 02:45:10;;;;;;;22.00;8.80;;;;;;;0.53;66.05;97309.30;109653;1274;22438;-64
2022/01/31 02:47:49;;;;;;;25.00;10.10;;;;;;;0.51;65.79;97321.95;109661;1274;22407;-64
2022/01/31 02:50:24;;;;;;;23.60;10.00;;;;;;;0.51;65.90;97308.42;109601;1274;22527;-64
2022/01/31 02:53:10;;;;;;;19.40;8.50;;;;;;;0.49;66.12;97299.76;109603;1274;22590;-64
2022/01/31 02:55:41;;;;;;;21.40;8.90;;;;;;;0.44;65.57;97297.69;109543;1275;22523;-63
2022/01/31 02:58:10;;;;;;;22.10;9.60;;;;;;;0.44;65.69;97303.95;109478;1276;22482;-64
2022/01/31 03:00:40;;;;;;;23.20;9.90;;;;;;;0.43;65.77;97296.63;109483;1275;23328;-64
2022/01/31 03:03:13;;;;;;;24.30;11.80;;;;;;;0.42;65.79;97303.88;109571;1275;22483;-64
2022/01/31 03:05:42;;;;;;;21.50;9.10;;;;;;;0.41;65.97;97311.82;109421;1277;22835;-64
2022/01/31 03:08:11;;;;;;;21.60;9.30;;;;;;;0.42;66.18;97294.07;109629;1274;22396;-64
2022/01/31 03:10:47;;;;;;;22.60;10.40;;;;;;;0.43;66.34;97290.15;109664;1274;22493;-64
2022/01/31 03:14:00;;;;;;;24.60;9.60;;;;;;;0.42;66.12;97301.91;109632;1274;22462;-64
2022/01/31 03:16:29;;;;;;;25.30;10.60;;;;;;;0.43;65.59;97281.62;109516;1274;22873;-64
2022/01/31 03:19:26;;;;;;;22.50;9.40;;;;;;;0.46;66.13;97272.95;109458;1276;22436;-64
2022/01/31 03:22:00;;;;;;;18.90;9.40;;;;;;;0.45;65.91;97270.52;109569;1275;22540;-63
2022/01/31 03:24:28;;;;;;;20.10;8.90;;;;;;;0.45;65.92;97262.61;109655;1271;22432;-64
2022/01/31 03:27:15;;;;;;;27.00;9.90;;;;;;;0.45;65.45;97276.88;109488;1276;22516;-64
2022/01/31 03:30:17;;;;;;;27.20;10.10;;;;;;;0.48;65.77;97260.88;109489;1275;22578;-66
2022/01/31 03:32:50;;;;;;;29.70;11.80;;;;;;;0.47;65.97;97260.56;109575;1275;22561;-64
2022/01/31 03:35:19;;;;;;;24.60;9.80;;;;;;;0.45;66.13;97249.73;109580;1275;22455;-64
2022/01/31 03:37:52;;;;;;;21.10;9.50;;;;;;;0.44;66.26;97253.58;109589;1274;22416;-65
2022/01/31 03:40:24;;;;;;;26.10;9.60;;;;;;;0.41;66.16;97253.61;109593;1274;22518;-64
2022/01/31 03:42:54;;;;;;;18.70;9.40;;;;;;;0.40;66.43;97254.13;109665;1274;23189;-64
2022/01/31 03:45:40;;;;;;;20.10;9.40;;;;;;;0.39;66.52;97255.92;109641;1274;23280;-64
2022/01/31 03:48:40;;;;;;;21.80;10.80;;;;;;;0.43;66.23;97256.13;109594;1275;23200;-64
2022/01/31 03:51:23;;;;;;;23.60;9.70;;;;;;;0.44;66.31;97247.60;109623;1274;22516;-65
2022/01/31 03:53:56;;;;;;;22.90;9.90;;;;;;;0.44;66.36;97246.91;109594;1274;22450;-64
2022/01/31 03:56:37;;;;;;;25.20;9.60;;;;;;;0.43;66.39;97237.56;109591;1274;22523;-64
2022/01/31 03:59:27;;;;;;;24.40;10.70;;;;;;;0.41;66.43;97246.52;109631;1274;22535;-64
2022/01/31 04:02:04;;;;;;;25.70;10.70;;;;;;;0.41;66.49;97234.16;109581;1275;23653;-64
2022/01/31 04:04:35;;;;;;;22.00;10.70;;;;;;;0.40;66.60;97234.57;109652;1274;22552;-64
2022/01/31 04:07:08;;;;;;;21.70;10.40;;;;;;;0.39;66.59;97235.02;109657;1273;23078;-64
2022/01/31 04:09:42;;;;;;;24.00;10.00;;;;;;;0.36;66.62;97227.64;109653;1274;22438;-64
2022/01/31 04:12:21;;;;;;;24.10;11.40;;;;;;;0.35;66.75;97212.56;109582;1275;22243;-64
2022/01/31 04:14:56;;;;;;;23.90;10.90;;;;;;;0.33;66.85;97206.20;109511;1274;22515;-64
2022/01/31 04:17:32;;;;;;;23.30;11.20;;;;;;;0.34;66.87;97204.98;109516;1276;22491;-64
2022/01/31 04:20:05;;;;;;;21.60;10.20;;;;;;;0.39;66.78;97191.20;109586;1275;22243;-65
2022/01/31 04:22:46;;;;;;;26.70;10.70;;;;;;;0.42;66.76;97191.98;109554;1275;22446;-63
2022/01/31 04:28:32;;;;;;;23.80;10.70;;;;;;;0.39;66.68;97189.77;109047;1276;22651;-63
2022/01/31 04:34:00;;;;;;;26.30;11.40;;;;;;;0.29;66.70;97194.29;109602;1275;22484;-63
2022/01/31 04:36:28;;;;;;;23.50;11.20;;;;;;;0.26;66.79;97191.39;109443;1276;24170;-63
2022/01/31 04:39:02;;;;;;;29.10;12.30;;;;;;;0.23;66.74;97192.26;109580;1274;22529;-63
2022/01/31 04:41:34;;;;;;;29.00;12.50;;;;;;;0.17;66.88;97185.69;109656;1274;22529;-63
2022/01/31 04:44:09;;;;;;;30.90;10.90;;;;;;;0.12;66.90;97184.83;109653;1274;22523;-63
2022/01/31 04:46:45;;;;;;;25.20;11.10;;;;;;;0.09;67.08;97180.77;109670;1274;22461;-63
2022/01/31 04:49:13;;;;;;;22.60;9.70;;;;;;;0.07;67.25;97178.64;109579;1275;22523;-63
2022/01/31 04:51:41;;;;;;;24.60;11.10;;;;;;;0.07;67.29;97185.79;109582;1274;22394;-63
2022/01/31 04:54:09;;;;;;;25.70;12.90;;;;;;;0.06;67.40;97179.58;109633;1274;22383;-64
2022/01/31 04:56:40;;;;;;;24.70;11.20;;;;;;;0.04;67.50;97183.31;109598;1274;22383;-63
2022/01/31 04:59:09;;;;;;;26.60;12.30;;;;;;;0.01;67.56;97184.61;109606;1275;23077;-63
2022/01/31 05:01:43;;;;;;;26.10;11.40;;;;;;;-0.01;67.70;97181.95;109494;1274;22333;-63
2022/01/31 05:04:11;;;;;;;28.50;12.10;;;;;;;-0.07;67.68;97177.48;109537;1276;23160;-63
2022/01/31 05:06:42;;;;;;;28.30;12.60;;;;;;;-0.08;67.98;97174.44;109619;1274;22439;-64
2022/01/31 05:09:11;;;;;;;26.90;11.60;;;;;;;-0.11;67.89;97170.96;109635;1274;22390;-64
2022/01/31 05:11:39;;;;;;;24.60;12.20;;;;;;;-0.15;67.97;97169.50;109506;1275;23503;-64
2022/01/31 05:14:07;;;;;;;24.30;11.60;;;;;;;-0.16;68.13;97158.88;109617;1274;22339;-64
2022/01/31 05:16:36;;;;;;;24.70;12.00;;;;;;;-0.13;67.96;97155.59;109626;1274;22426;-64
2022/01/31 05:19:04;;;;;;;25.20;12.40;;;;;;;-0.12;68.26;97150.52;109632;1274;22946;-64
2022/01/31 05:21:32;;;;;;;27.70;13.30;;;;;;;-0.12;68.26;97145.42;109526;1276;22434;-64
2022/01/31 05:24:00;;;;;;;24.40;12.30;;;;;;;-0.14;68.34;97143.34;109600;1274;23765;-63
2022/01/31 05:26:28;;;;;;;28.80;13.70;;;;;;;-0.19;68.73;97139.68;109630;1274;22479;-64
2022/01/31 05:28:56;;;;;;;30.50;13.00;;;;;;;-0.21;68.59;97142.26;109541;1274;23709;-64
2022/01/31 05:31:24;;;;;;;30.60;13.50;;;;;;;-0.25;68.67;97134.16;109599;1275;23136;-64
2022/01/31 05:33:52;;;;;;;26.80;13.20;;;;;;;-0.28;68.63;97133.07;109631;1274;23280;-64
2022/01/31 05:36:21;;;;;;;22.80;12.30;;;;;;;-0.29;68.66;97130.58;109631;1274;22435;-64
2022/01/31 05:38:49;;;;;;;30.70;14.20;;;;;;;-0.29;68.84;97125.48;109615;1274;22454;-64
2022/01/31 05:41:19;;;;;;;29.00;13.70;;;;;;;-0.29;68.74;97120.41;109633;1274;23170;-64
2022/01/31 05:43:47;;;;;;;29.70;15.20;;;;;;;-0.30;69.00;97117.48;109550;1276;22610;-63
2022/01/31 05:46:15;;;;;;;30.00;14.80;;;;;;;-0.32;68.95;97108.58;109625;1274;22541;-63
2022/01/31 05:48:44;;;;;;;34.20;15.70;;;;;;;-0.36;69.05;97108.84;109616;1274;22461;-64
2022/01/31 05:51:23;;;;;;;38.10;15.70;;;;;;;-0.39;69.14;97103.23;109554;1276;23111;-64
2022/01/31 05:53:51;;;;;;;31.40;15.10;;;;;;;-0.42;69.08;97107.34;109540;1276;22433;-63
2022/01/31 05:56:19;;;;;;;31.60;14.50;;;;;;;-0.47;69.39;97102.89;109594;1274;22443;-62
2022/01/31 05:58:49;;;;;;;27.80;13.30;;;;;;;-0.48;69.31;97099.65;109639;1274;22429;-63
2022/01/31 06:01:18;;;;;;;21.20;12.20;;;;;;;-0.47;69.33;97101.30;109650;1272;22535;-63
2022/01/31 06:03:46;;;;;;;28.20;14.20;;;;;;;-0.46;69.37;97093.23;109554;1276;22556;-64
2022/01/31 06:06:14;;;;;;;30.30;13.90;;;;;;;-0.41;69.47;97092.70;109644;1274;22624;-63
2022/01/31 06:08:42;;;;;;;30.30;14.70;;;;;;;-0.39;69.59;97098.58;109523;1276;23524;-64
2022/01/31 06:11:11;;;;;;;38.00;14.10;;;;;;;-0.39;69.61;97102.18;109620;1274;22411;-64
2022/01/31 06:13:42;;;;;;;34.20;14.20;;;;;;;-0.39;69.65;97098.95;109620;1274;22455;-63
2022/01/31 06:16:10;;;;;;;28.00;13.60;;;;;;;-0.38;69.71;97099.55;109611;1274;22426;-64
2022/01/31 06:18:39;;;;;;;33.60;16.10;;;;;;;-0.41;69.85;97091.25;109634;1272;22520;-63
2022/01/31 06:21:07;;;;;;;35.60;18.40;;;;;;;-0.40;69.83;97090.16;109658;1274;22493;-64
2022/01/31 06:23:36;;;;;;;38.50;21.50;;;;;;;-0.39;69.96;97088.84;109622;1274;22437;-64
2022/01/31 06:26:04;;;;;;;44.30;29.90;;;;;;;-0.40;69.90;97089.25;109620;1274;23244;-65
2022/01/31 06:28:32;;;;;;;65.20;50.50;;;;;;;-0.39;69.94;97080.11;109577;1274;22424;-63
2022/01/31 06:31:01;;;;;;;85.80;60.20;;;;;;;-0.38;70.15;97074.41;109548;1274;22462;-62
2022/01/31 06:33:29;;;;;;;55.60;37.40;;;;;;;-0.37;70.21;97070.45;109475;1274;22362;-63
2022/01/31 06:35:57;;;;;;;56.50;39.80;;;;;;;-0.37;70.42;97068.48;109458;1276;22630;-63
2022/01/31 06:38:28;;;;;;;51.60;37.20;;;;;;;-0.37;70.25;97066.38;109634;1274;22441;-63
2022/01/31 06:40:56;;;;;;;67.70;42.70;;;;;;;-0.38;70.30;97065.52;109548;1276;22623;-63
2022/01/31 06:43:24;;;;;;;51.70;30.00;;;;;;;-0.40;70.40;97065.80;109552;1276;22489;-63
2022/01/31 06:45:52;;;;;;;54.20;34.80;;;;;;;-0.42;70.36;97056.73;109647;1274;22417;-63
2022/01/31 06:48:20;;;;;;;45.60;29.10;;;;;;;-0.41;70.61;97054.80;109585;1275;23114;-63
2022/01/31 06:50:48;;;;;;;59.10;36.10;;;;;;;-0.37;70.41;97047.84;109664;1274;22433;-64
2022/01/31 06:53:17;;;;;;;44.70;29.20;;;;;;;-0.33;70.45;97043.33;109544;1274;22475;-62
2022/01/31 06:55:45;;;;;;;53.80;38.30;;;;;;;-0.31;70.63;97044.95;109537;1276;22548;-63
2022/01/31 06:58:13;;;;;;;45.30;29.90;;;;;;;-0.31;70.51;97041.77;109488;1276;23224;-63
2022/01/31 07:00:41;;;;;;;43.50;21.40;;;;;;;-0.31;70.57;97037.73;109554;1276;22724;-63
2022/01/31 07:03:13;;;;;;;38.10;17.00;;;;;;;-0.32;70.49;97036.98;109646;1274;22440;-63
2022/01/31 07:05:43;;;;;;;30.30;16.00;;;;;;;-0.31;70.77;97028.27;109556;1276;22299;-64
2022/01/31 07:08:13;;;;;;;29.40;15.40;;;;;;;-0.28;70.62;97027.39;109659;1272;22408;-64
2022/01/31 07:10:41;;;;;;;36.30;18.70;;;;;;;-0.24;70.64;97027.75;109661;1274;22545;-64
2022/01/31 07:13:24;;;;;;;35.30;18.80;;;;;;;-0.25;70.89;97027.96;109600;1274;22436;-63
2022/01/31 07:15:52;;;;;;;43.20;19.70;;;;;;;-0.21;70.78;97029.56;109478;1276;22310;-64
2022/01/31 07:18:19;;;;;;;38.10;18.70;;;;;;;-0.20;70.83;97035.84;109556;1276;22453;-63
2022/01/31 07:20:51;;;;;;;34.40;19.40;;;;;;;-0.18;70.71;97027.48;109567;1276;22467;-63
2022/01/31 07:23:27;;;;;;;33.10;20.10;;;;;;;-0.15;70.77;97023.17;109652;1274;22249;-65
2022/01/31 07:25:55;;;;;;;34.40;22.20;;;;;;;-0.09;70.86;97015.39;109660;1274;22448;-64
2022/01/31 07:28:23;;;;;;;33.10;18.90;;;;;;;-0.03;70.70;97010.41;109559;1276;23198;-65
2022/01/31 07:30:52;;;;;;;34.40;19.40;;;;;;;0.03;70.77;97013.11;109380;1276;22443;-64
2022/01/31 07:33:20;;;;;;;39.60;22.40;;;;;;;0.07;70.70;97014.77;109564;1276;23420;-64
2022/01/31 07:35:50;;;;;;;35.50;19.80;;;;;;;0.08;70.78;97009.48;109641;1274;22492;-63
2022/01/31 07:38:18;;;;;;;32.60;17.30;;;;;;;0.11;70.82;97008.92;109664;1274;22437;-63
2022/01/31 07:40:47;;;;;;;29.70;16.70;;;;;;;0.14;70.73;97005.30;109568;1275;22495;-64
2022/01/31 07:43:15;;;;;;;33.40;19.00;;;;;;;0.19;70.64;97002.68;109653;1274;22545;-64
2022/01/31 07:45:43;;;;;;;30.40;20.00;;;;;;;0.25;70.66;97001.13;109547;1276;22504;-63
2022/01/31 07:48:11;;;;;;;34.80;17.50;;;;;;;0.29;70.42;96993.48;109556;1276;22498;-63
2022/01/31 07:50:40;;;;;;;37.20;20.60;;;;;;;0.32;70.59;96985.29;109686;1274;22852;-64
2022/01/31 07:53:09;;;;;;;39.40;19.90;;;;;;;0.34;70.67;96980.10;109548;1276;22524;-63
2022/01/31 07:55:37;;;;;;;41.80;24.70;;;;;;;0.36;70.51;96975.63;109557;1276;23271;-63
2022/01/31 07:58:06;;;;;;;40.90;21.90;;;;;;;0.36;70.49;96973.65;109653;1274;22381;-63
2022/01/31 08:00:47;;;;;;;39.30;24.40;;;;;;;0.35;70.36;96971.58;109538;1275;23445;-63
2022/01/31 08:03:15;;;;;;;41.20;20.70;;;;;;;0.32;70.32;96968.07;109679;1274;22477;-64
2022/01/31 08:05:44;;;;;;;35.20;18.80;;;;;;;0.31;70.52;96963.70;109587;1275;22467;-64
2022/01/31 08:08:12;;;;;;;30.90;19.00;;;;;;;0.33;70.40;96959.74;109673;1274;22492;-64
2022/01/31 08:10:42;;;;;;;32.90;21.80;;;;;;;0.35;70.29;96956.16;109524;1276;22240;-64
2022/01/31 08:13:10;;;;;;;37.10;21.90;;;;;;;0.37;70.63;96950.23;109543;1276;23182;-64
2022/01/31 08:16:01;;;;;;;41.20;22.10;;;;;;;0.39;70.43;96949.20;109598;1275;22453;-64
2022/01/31 08:18:30;;;;;;;39.70;23.20;;;;;;;0.39;70.54;96946.39;109657;1274;22438;-64
2022/01/31 08:20:59;;;;;;;39.10;22.70;;;;;;;0.39;70.51;96943.83;109649;1274;22467;-64
2022/01/31 08:23:27;;;;;;;40.50;25.30;;;;;;;0.39;70.37;96943.10;109555;1276;22560;-64
2022/01/31 08:25:55;;;;;;;39.10;22.60;;;;;;;0.37;70.43;96940.06;109579;1276;22564;-64
2022/01/31 08:28:32;;;;;;;36.50;20.60;;;;;;;0.41;70.47;96942.73;109578;1275;22428;-64
2022/01/31 08:31:37;;;;;;;35.70;20.10;;;;;;;0.47;70.41;96941.86;109570;1276;23232;-64
2022/01/31 08:36:26;;;;;;;44.20;24.40;;;;;;;0.52;70.42;96935.80;109600;1275;23184;-64
2022/01/31 08:38:54;;;;;;;41.00;22.10;;;;;;;0.51;70.35;96927.63;109656;1274;22464;-65
2022/01/31 08:41:24;;;;;;;39.70;22.80;;;;;;;0.50;70.44;96924.44;109566;1276;22420;-64
2022/01/31 08:43:52;;;;;;;40.50;24.00;;;;;;;0.49;70.38;96918.17;109523;1276;22662;-64
2022/01/31 08:46:20;;;;;;;50.20;29.80;;;;;;;0.51;70.48;96914.65;109653;1274;22420;-63
2022/01/31 08:48:48;;;;;;;44.90;24.00;;;;;;;0.53;70.61;96918.41;109641;1274;22314;-64
2022/01/31 08:51:17;;;;;;;43.80;24.00;;;;;;;0.55;70.34;96911.89;109557;1276;22457;-63
2022/01/31 08:53:48;;;;;;;36.90;20.30;;;;;;;0.56;70.24;96909.79;109520;1276;23378;-64
2022/01/31 08:56:16;;;;;;;34.70;18.70;;;;;;;0.59;70.04;96909.95;109551;1276;22462;-63
2022/01/31 08:58:47;;;;;;;40.90;22.10;;;;;;;0.64;70.12;96902.30;109571;1274;22416;-63
2022/01/31 09:01:18;;;;;;;40.40;21.00;;;;;;;0.68;70.02;96903.54;109551;1276;22452;-63
2022/01/31 09:06:22;;;;;;;36.80;20.10;;;;;;;0.69;69.57;96897.73;109530;1276;22434;-63
2022/01/31 09:08:50;;;;;;;45.50;22.60;;;;;;;0.67;69.78;96889.05;109592;1275;22493;-64
2022/01/31 09:11:18;;;;;;;38.10;20.30;;;;;;;0.68;69.80;96887.84;109571;1274;22412;-64
2022/01/31 09:13:46;;;;;;;38.90;21.10;;;;;;;0.67;69.52;96885.02;109631;1274;23300;-62
2022/01/31 09:16:15;;;;;;;39.50;20.60;;;;;;;0.64;69.33;96882.52;109548;1276;22614;-63
2022/01/31 09:18:44;;;;;;;39.70;21.10;;;;;;;0.63;69.47;96875.09;109642;1274;22511;-64
2022/01/31 09:21:12;;;;;;;41.40;22.30;;;;;;;0.62;69.54;96866.61;109639;1273;22508;-64
2022/01/31 09:23:41;;;;;;;33.80;18.80;;;;;;;0.63;69.62;96867.94;109658;1274;23219;-63
2022/01/31 09:26:10;;;;;;;36.60;21.30;;;;;;;0.66;69.77;96869.17;109650;1274;22494;-64
2022/01/31 09:28:38;;;;;;;36.00;23.20;;;;;;;0.70;69.64;96866.47;109651;1274;23094;-64
2022/01/31 09:31:06;;;;;;;48.50;28.00;;;;;;;0.75;69.87;96866.06;109489;1274;137423;-64
2022/01/31 09:33:34;;;;;;;53.10;32.40;;;;;;;0.79;70.05;96860.23;109583;1274;22473;-64
2022/01/31 09:36:02;;;;;;;44.90;25.80;;;;;;;0.83;69.87;96860.20;109549;1275;22485;-64
2022/01/31 09:38:35;;;;;;;45.10;30.30;;;;;;;0.81;69.70;96854.73;109520;1276;22531;-65
2022/01/31 09:41:04;;;;;;;50.80;33.20;;;;;;;0.82;70.07;96851.23;109679;1274;22371;-63
2022/01/31 09:48:56;;;;;;;52.10;27.50;;;;;;;0.81;69.99;96834.73;109663;1274;22982;-64
2022/01/31 09:51:27;;;;;;;60.90;36.50;;;;;;;0.80;69.95;96827.36;109642;1274;23194;-63
2022/01/31 09:54:03;;;;;;;50.90;30.70;;;;;;;0.79;69.88;96823.27;109662;1273;22475;-64
2022/01/31 09:56:38;;;;;;;43.50;26.60;;;;;;;0.79;69.99;96820.20;109621;1274;22470;-63
2022/01/31 09:59:08;;;;;;;44.30;26.80;;;;;;;0.82;69.91;96820.05;109585;1274;22545;-64
2022/01/31 10:01:52;;;;;;;43.90;26.60;;;;;;;0.83;69.99;96818.98;109470;1276;22488;-63
2022/01/31 10:04:23;;;;;;;57.50;29.80;;;;;;;0.84;70.07;96812.15;109526;1276;22457;-64
2022/01/31 10:06:56;;;;;;;51.10;29.70;;;;;;;0.84;70.20;96805.77;109433;1274;137670;-63
2022/01/31 10:09:32;;;;;;;61.00;30.00;;;;;;;0.83;70.03;96802.86;109661;1274;22491;-63
2022/01/31 10:12:18;;;;;;;49.70;27.40;;;;;;;0.83;70.06;96796.13;109620;1274;22493;-64
2022/01/31 10:17:42;;;;;;;80.80;38.20;;;;;;;0.80;70.39;96782.55;109556;1274;22515;-64
2022/01/31 10:20:14;;;;;;;42.90;24.50;;;;;;;0.83;70.23;96782.29;109577;1275;23278;-64
2022/01/31 10:22:43;;;;;;;56.10;32.20;;;;;;;0.86;70.28;96776.30;109570;1275;22538;-63
2022/01/31 10:25:16;;;;;;;47.80;27.70;;;;;;;0.92;70.32;96779.65;109546;1275;22544;-66
2022/01/31 10:28:18;;;;;;;54.60;33.60;;;;;;;0.96;70.25;96779.33;109283;1277;22434;-63
2022/01/31 10:30:51;;;;;;;57.30;34.40;;;;;;;0.96;70.26;96775.62;109470;1277;22502;-64
2022/01/31 10:33:21;;;;;;;55.50;30.20;;;;;;;0.96;70.31;96770.31;109575;1275;23478;-63
2022/01/31 10:35:50;;;;;;;54.50;31.40;;;;;;;0.97;70.35;96760.13;109511;1276;23212;-64
2022/01/31 10:38:31;;;;;;;51.40;30.00;;;;;;;0.98;70.31;96762.15;109505;1276;23199;-64
2022/01/31 10:44:55;;;;;;;57.20;25.90;;;;;;;0.91;70.29;96752.49;109566;1275;22490;-64
2022/01/31 10:53:38;;;;;;;44.20;24.20;;;;;;;0.92;70.30;96740.98;108611;1277;138028;-64
2022/01/31 10:56:06;;;;;;;41.40;22.30;;;;;;;0.95;70.18;96737.05;109420;1276;22526;-64
2022/01/31 10:58:34;;;;;;;43.80;23.70;;;;;;;0.95;70.16;96735.77;109614;1274;22431;-63
2022/01/31 11:01:16;;;;;;;49.30;25.40;;;;;;;0.94;70.38;96736.51;109562;1277;22550;-64
2022/01/31 11:03:45;;;;;;;51.20;24.50;;;;;;;0.96;70.40;96735.73;109484;1276;22330;-63
2022/01/31 11:06:13;;;;;;;49.20;24.40;;;;;;;0.96;70.28;96731.16;109444;1276;23139;-63
2022/01/31 11:08:42;;;;;;;44.60;22.60;;;;;;;0.96;70.20;96734.56;109540;1275;22411;-63
2022/01/31 11:11:12;;;;;;;49.90;19.40;;;;;;;0.95;70.11;96739.81;109657;1274;22387;-64
2022/01/31 11:13:41;;;;;;;42.10;22.50;;;;;;;0.95;70.03;96733.27;109654;1274;22481;-64
2022/01/31 11:16:10;;;;;;;40.10;20.90;;;;;;;0.98;69.99;96728.84;109570;1276;22510;-64
2022/01/31 11:18:44;;;;;;;48.00;24.40;;;;;;;0.97;69.86;96723.52;109519;1276;23138;-64
2022/01/31 11:21:12;;;;;;;47.00;26.30;;;;;;;0.97;70.15;96721.73;109650;1274;22459;-64
2022/01/31 11:23:43;;;;;;;51.50;22.90;;;;;;;0.95;70.07;96717.42;109478;1276;23427;-64
2022/01/31 11:26:12;;;;;;;52.50;25.80;;;;;;;0.96;70.12;96719.38;109633;1274;22486;-64
2022/01/31 11:28:45;;;;;;;75.60;32.50;;;;;;;0.95;69.62;96719.12;109510;1274;137756;-64
2022/01/31 11:31:16;;;;;;;53.20;26.20;;;;;;;0.93;69.74;96717.32;109621;1274;22436;-64
2022/01/31 11:33:45;;;;;;;58.50;25.60;;;;;;;0.90;69.63;96715.94;109628;1274;22488;-64
2022/01/31 11:36:13;;;;;;;45.80;21.80;;;;;;;0.92;69.85;96709.85;109553;1275;22579;-64
2022/01/31 11:38:44;;;;;;;35.80;19.70;;;;;;;0.98;69.96;96702.79;109646;1274;22553;-64
2022/01/31 11:41:12;;;;;;;47.50;25.20;;;;;;;1.03;69.92;96697.04;109666;1274;22420;-64
2022/01/31 11:43:41;;;;;;;48.60;25.70;;;;;;;1.05;69.67;96690.42;109558;1277;22584;-65
2022/01/31 11:46:09;;;;;;;41.10;22.20;;;;;;;1.07;69.64;96690.89;109652;1274;22396;-65
2022/01/31 11:48:39;;;;;;;64.30;36.70;;;;;;;1.09;69.82;96690.05;109567;1275;22383;-64
2022/01/31 11:51:08;;;;;;;50.70;29.70;;;;;;;1.12;70.15;96690.35;109649;1274;22575;-65
2022/01/31 11:53:37;;;;;;;51.70;25.70;;;;;;;1.15;69.79;96696.14;109637;1274;22240;-64
2022/01/31 11:56:22;;;;;;;54.70;25.30;;;;;;;1.13;69.06;96693.33;109617;1274;22405;-64
2022/01/31 11:58:54;;;;;;;60.10;28.90;;;;;;;1.12;69.36;96691.42;109642;1274;23029;-64
2022/01/31 12:01:31;;;;;;;45.00;23.50;;;;;;;1.14;69.64;96688.91;109637;1274;22421;-63
2022/01/31 12:04:00;;;;;;;48.90;27.30;;;;;;;1.18;69.72;96684.09;109634;1274;22348;-63
2022/01/31 12:06:37;;;;;;;52.20;28.30;;;;;;;1.26;69.45;96680.66;109663;1274;23211;-63
2022/01/31 12:09:17;;;;;;;48.50;32.50;;;;;;;1.33;69.66;96676.83;109652;1274;22348;-63